Time;durP1;ratioP1;P1;durP2;ratioP2;P2;SDS_P1;SDS_P2;PMS_P1;PMS_P2;Temp;Humidity;BMP_temperature;BMP_pressure;BME280_temperature;BME280_humidity;BME280_pressure;Samples;Min_cycle;Max_cycle;Signal;HPM_P1;HPM_P2
2020/12/14 00:00:04;;;;;;;5.80;2.73;;;7.50;99.90;;;;;;5060173;28;20494;-71
2020/12/14 00:02:31;;;;;;;5.47;2.50;;;7.50;99.90;;;;;;5054806;28;21050;-71
2020/12/14 00:04:57;;;;;;;5.77;4.67;;;7.50;99.90;;;;;;5044988;28;20536;-70
2020/12/14 00:07:24;;;;;;;2.33;2.13;;;7.40;99.90;;;;;;5050255;28;20459;-70
2020/12/14 00:09:52;;;;;;;3.93;2.10;;;7.30;99.90;;;;;;5059265;28;20485;-70
2020/12/14 00:12:18;;;;;;;3.53;1.40;;;7.30;99.90;;;;;;5059182;28;20867;-71
2020/12/14 00:14:45;;;;;;;1.60;1.43;;;7.30;99.90;;;;;;5062785;28;20434;-71
2020/12/14 00:17:11;;;;;;;1.50;0.90;;;7.50;99.90;;;;;;5045960;28;20430;-71
2020/12/14 00:19:38;;;;;;;2.10;1.60;;;7.50;99.90;;;;;;5055295;28;20549;-71
2020/12/14 00:22:04;;;;;;;3.83;1.70;;;7.50;99.90;;;;;;5061874;28;20670;-71
2020/12/14 00:24:31;;;;;;;2.80;2.10;;;7.60;99.90;;;;;;5057625;28;20993;-71
2020/12/14 00:26:58;;;;;;;1.70;1.60;;;7.60;99.90;;;;;;5053685;28;20518;-70
2020/12/14 00:29:25;;;;;;;1.40;1.30;;;7.60;99.90;;;;;;5056138;28;20516;-71
2020/12/14 00:31:52;;;;;;;1.57;1.37;;;7.70;99.90;;;;;;5062411;28;20451;-71
2020/12/14 00:34:19;;;;;;;2.27;1.87;;;7.70;99.90;;;;;;5053779;28;20483;-71
2020/12/14 00:36:46;;;;;;;8.80;1.70;;;7.70;99.90;;;;;;5052630;28;20461;-71
2020/12/14 00:39:12;;;;;;;5.40;2.20;;;7.80;99.90;;;;;;5053537;28;20930;-71
2020/12/14 00:41:39;;;;;;;2.30;2.13;;;7.70;99.90;;;;;;5051771;28;21048;-71
2020/12/14 00:44:06;;;;;;;1.30;1.17;;;7.80;99.90;;;;;;5061320;28;20527;-71
2020/12/14 00:46:33;;;;;;;6.00;3.03;;;7.80;99.90;;;;;;5054183;28;20550;-71
2020/12/14 00:48:59;;;;;;;3.27;1.30;;;7.80;99.90;;;;;;5062030;28;20478;-72
2020/12/14 00:51:26;;;;;;;3.00;2.60;;;7.80;99.90;;;;;;5059408;28;20538;-71
2020/12/14 00:53:53;;;;;;;2.13;1.53;;;7.70;99.90;;;;;;5059723;28;20503;-71
2020/12/14 00:56:20;;;;;;;1.83;1.43;;;7.80;99.90;;;;;;5058680;28;20459;-71
2020/12/14 00:58:47;;;;;;;1.87;1.63;;;7.80;99.90;;;;;;5058035;28;20462;-71
2020/12/14 01:01:16;;;;;;;1.53;1.40;;;7.90;99.90;;;;;;5055593;28;20427;-70
2020/12/14 01:03:42;;;;;;;0.90;0.77;;;7.90;99.90;;;;;;5047988;28;20549;-71
2020/12/14 01:06:09;;;;;;;11.13;1.93;;;7.90;99.90;;;;;;5053614;28;20513;-71
2020/12/14 01:08:36;;;;;;;2.10;1.33;;;7.90;99.90;;;;;;5059253;28;20445;-70
2020/12/14 01:11:04;;;;;;;1.67;1.50;;;7.80;99.90;;;;;;5058764;28;20488;-71
2020/12/14 01:13:30;;;;;;;2.80;1.70;;;7.70;99.90;;;;;;5045582;28;20415;-71
2020/12/14 01:15:57;;;;;;;2.30;1.90;;;7.80;99.90;;;;;;5051453;28;20500;-71
2020/12/14 01:18:24;;;;;;;5.60;1.67;;;7.70;99.90;;;;;;5050744;28;20526;-71
2020/12/14 01:20:51;;;;;;;1.83;1.47;;;7.70;99.90;;;;;;5055278;28;21152;-71
2020/12/14 01:23:19;;;;;;;4.50;1.80;;;7.70;99.90;;;;;;5057413;28;20574;-71
2020/12/14 01:25:46;;;;;;;2.07;1.80;;;7.80;99.90;;;;;;5048941;28;20822;-71
2020/12/14 01:28:13;;;;;;;1.60;1.23;;;7.90;99.90;;;;;;5049527;28;20457;-71
2020/12/14 01:30:39;;;;;;;1.87;1.67;;;7.80;99.90;;;;;;5057235;28;20447;-72
2020/12/14 01:33:06;;;;;;;1.20;1.10;;;7.80;99.90;;;;;;5057689;28;20526;-70
2020/12/14 01:35:33;;;;;;;2.17;1.97;;;7.90;99.90;;;;;;5054279;28;20492;-71
2020/12/14 01:38:00;;;;;;;1.77;1.37;;;7.90;99.90;;;;;;5062951;28;20520;-70
2020/12/14 01:40:26;;;;;;;1.27;1.10;;;7.90;99.90;;;;;;5057165;28;20539;-71
2020/12/14 01:42:53;;;;;;;3.10;1.40;;;7.90;99.90;;;;;;5054236;28;20505;-71
2020/12/14 01:45:20;;;;;;;3.90;1.63;;;8.10;99.90;;;;;;5062602;28;20966;-70
2020/12/14 01:47:49;;;;;;;11.80;1.50;;;8.10;99.90;;;;;;5057914;28;20535;-71
2020/12/14 01:50:16;;;;;;;1.60;1.40;;;8.00;99.90;;;;;;5056646;28;20458;-71
2020/12/14 01:52:45;;;;;;;3.07;1.47;;;8.10;99.90;;;;;;5058483;28;20465;-71
2020/12/14 01:55:14;;;;;;;1.50;1.20;;;8.00;99.90;;;;;;5052789;28;20466;-71
2020/12/14 01:57:41;;;;;;;1.23;1.13;;;8.10;99.90;;;;;;5055524;28;20910;-72
2020/12/14 02:00:09;;;;;;;4.50;2.40;;;8.10;99.90;;;;;;5054225;28;20577;-71
2020/12/14 02:02:36;;;;;;;5.17;2.13;;;8.20;99.90;;;;;;5054730;28;20570;-71
2020/12/14 02:05:04;;;;;;;4.03;1.10;;;8.20;99.90;;;;;;5054814;28;20487;-71
2020/12/14 02:07:31;;;;;;;1.73;1.20;;;8.20;99.90;;;;;;5062079;28;20866;-71
2020/12/14 02:09:58;;;;;;;3.20;1.23;;;8.10;99.90;;;;;;5059539;28;20450;-71
2020/12/14 02:12:27;;;;;;;1.77;1.53;;;8.20;99.90;;;;;;5051414;28;20528;-71
2020/12/14 02:14:55;;;;;;;1.30;1.00;;;8.00;99.90;;;;;;5056203;28;20482;-71
2020/12/14 02:17:23;;;;;;;1.27;1.17;;;8.00;99.90;;;;;;5059618;28;20539;-70
2020/12/14 02:19:50;;;;;;;5.03;1.33;;;8.10;99.90;;;;;;5059583;28;20758;-70
2020/12/14 02:22:18;;;;;;;1.50;1.20;;;8.10;99.90;;;;;;5065735;28;20571;-72
2020/12/14 02:24:52;;;;;;;1.10;1.00;;;8.00;99.90;;;;;;5058366;28;20570;-71
2020/12/14 02:27:19;;;;;;;2.43;2.33;;;8.00;99.90;;;;;;5063079;28;20475;-71
2020/12/14 02:29:47;;;;;;;1.43;1.33;;;8.10;99.90;;;;;;5059482;28;20530;-71
2020/12/14 02:32:15;;;;;;;1.90;1.30;;;8.10;99.90;;;;;;5062430;28;21215;-71
2020/12/14 02:34:42;;;;;;;2.60;1.97;;;8.00;99.90;;;;;;5065694;28;20528;-71
2020/12/14 02:37:10;;;;;;;1.63;1.33;;;8.00;99.90;;;;;;5057154;28;20550;-71
2020/12/14 02:39:37;;;;;;;3.00;1.20;;;7.90;99.90;;;;;;5065531;28;20523;-71
2020/12/14 02:42:09;;;;;;;1.77;1.30;;;7.90;99.90;;;;;;5059149;28;20562;-71
2020/12/14 02:44:35;;;;;;;7.73;1.50;;;7.90;99.90;;;;;;5059829;28;20486;-71
2020/12/14 02:47:02;;;;;;;1.87;1.30;;;7.80;99.90;;;;;;5059720;28;20466;-71
2020/12/14 02:49:29;;;;;;;1.00;0.83;;;7.80;99.90;;;;;;5054142;28;20874;-71
2020/12/14 02:51:56;;;;;;;3.10;1.77;;;7.70;99.90;;;;;;5065378;28;20802;-71
2020/12/14 02:54:23;;;;;;;3.13;1.60;;;7.80;99.90;;;;;;5062866;28;20949;-72
2020/12/14 02:56:49;;;;;;;1.67;1.50;;;7.80;99.90;;;;;;5051142;28;20456;-71
2020/12/14 02:59:17;;;;;;;3.50;1.70;;;7.80;99.90;;;;;;5061974;28;20514;-71
2020/12/14 03:01:44;;;;;;;7.13;1.83;;;7.80;99.90;;;;;;5052126;28;20547;-71
2020/12/14 03:04:11;;;;;;;1.10;0.93;;;7.70;99.90;;;;;;5053675;28;20467;-71
2020/12/14 03:06:38;;;;;;;1.67;1.57;;;7.90;99.90;;;;;;5063691;28;20881;-71
2020/12/14 03:09:04;;;;;;;2.83;1.77;;;7.80;99.90;;;;;;5064622;28;20504;-71
2020/12/14 03:11:31;;;;;;;1.50;1.30;;;7.70;99.90;;;;;;5058626;28;20539;-71
2020/12/14 03:13:58;;;;;;;1.80;1.70;;;7.70;99.90;;;;;;5058678;28;20933;-72
2020/12/14 03:16:26;;;;;;;5.63;1.73;;;7.80;99.90;;;;;;5057621;28;20483;-71
2020/12/14 03:18:52;;;;;;;1.80;1.10;;;7.90;99.90;;;;;;5062202;28;20871;-71
2020/12/14 03:21:19;;;;;;;5.30;2.30;;;7.90;99.90;;;;;;5053652;28;20526;-71
2020/12/14 03:23:46;;;;;;;1.23;0.97;;;7.90;99.90;;;;;;5056428;28;21022;-71
2020/12/14 03:26:17;;;;;;;4.33;1.93;;;8.10;99.90;;;;;;5041684;28;20465;-71
2020/12/14 03:28:43;;;;;;;6.07;1.77;;;8.00;99.90;;;;;;5063139;28;20825;-72
2020/12/14 03:31:11;;;;;;;4.23;1.70;;;8.10;99.90;;;;;;5058237;28;20540;-71
2020/12/14 03:33:38;;;;;;;1.23;1.13;;;8.20;99.90;;;;;;5062751;28;21146;-72
2020/12/14 03:36:04;;;;;;;2.40;1.30;;;8.20;99.90;;;;;;5064008;28;20554;-72
2020/12/14 03:38:31;;;;;;;7.20;2.37;;;8.20;99.90;;;;;;5065395;28;20461;-72
2020/12/14 03:41:02;;;;;;;1.80;1.33;;;8.10;99.90;;;;;;5051998;28;20497;-71
2020/12/14 03:43:29;;;;;;;1.60;1.27;;;8.00;99.90;;;;;;5054382;28;20489;-70
2020/12/14 03:45:55;;;;;;;2.90;2.23;;;8.00;99.90;;;;;;5058641;28;20463;-72
2020/12/14 03:48:22;;;;;;;2.00;1.30;;;8.00;99.90;;;;;;5058490;28;20499;-71
2020/12/14 03:50:50;;;;;;;10.93;1.43;;;8.00;99.90;;;;;;5032472;28;20644;-71
2020/12/14 03:53:17;;;;;;;1.93;0.93;;;8.00;99.90;;;;;;5054479;28;20547;-71
2020/12/14 03:55:43;;;;;;;2.50;1.53;;;8.00;99.90;;;;;;5055435;28;20547;-71
2020/12/14 03:58:10;;;;;;;2.53;1.40;;;8.10;99.90;;;;;;5053910;28;20488;-72
2020/12/14 04:00:37;;;;;;;7.20;1.80;;;8.10;99.90;;;;;;5055112;28;20453;-71
2020/12/14 04:03:06;;;;;;;3.17;1.60;;;8.20;99.90;;;;;;5056245;28;20507;-70
2020/12/14 04:05:33;;;;;;;2.30;1.37;;;8.20;99.90;;;;;;5048821;28;20610;-71
2020/12/14 04:08:00;;;;;;;1.50;1.10;;;8.20;99.90;;;;;;5050430;28;20446;-71
2020/12/14 04:10:27;;;;;;;4.40;2.07;;;8.30;99.90;;;;;;5058919;28;20474;-71
2020/12/14 04:12:55;;;;;;;2.03;1.40;;;8.30;99.90;;;;;;5065787;28;20445;-71
2020/12/14 04:15:22;;;;;;;8.83;2.30;;;8.30;99.90;;;;;;5064047;28;20535;-72
2020/12/14 04:17:48;;;;;;;1.77;1.43;;;8.40;99.90;;;;;;5050704;28;20575;-70
2020/12/14 04:20:15;;;;;;;6.93;1.27;;;8.40;99.90;;;;;;5049179;28;20861;-72
2020/12/14 04:22:42;;;;;;;3.43;1.10;;;8.50;99.90;;;;;;5030978;28;20562;-72
2020/12/14 04:25:09;;;;;;;1.40;1.20;;;8.40;99.90;;;;;;5050999;28;21149;-71
2020/12/14 04:27:36;;;;;;;2.30;1.70;;;8.40;99.90;;;;;;5054391;28;20481;-70
2020/12/14 04:30:03;;;;;;;3.20;1.30;;;8.50;99.90;;;;;;5047686;28;20490;-70
2020/12/14 04:32:29;;;;;;;1.20;1.00;;;8.50;99.90;;;;;;5048864;28;20861;-71
2020/12/14 04:34:56;;;;;;;2.00;1.30;;;8.50;99.90;;;;;;5047425;28;20996;-71
2020/12/14 04:37:22;;;;;;;3.63;2.00;;;8.40;99.90;;;;;;5049122;28;20455;-71
2020/12/14 04:39:49;;;;;;;1.77;1.47;;;8.50;99.90;;;;;;5044917;28;20482;-70
2020/12/14 04:42:17;;;;;;;1.10;0.90;;;8.60;99.90;;;;;;5046302;28;20903;-71
2020/12/14 04:44:44;;;;;;;2.70;1.43;;;8.40;99.90;;;;;;5047384;28;20918;-70
2020/12/14 04:47:12;;;;;;;1.30;1.00;;;8.40;99.90;;;;;;5044466;28;20631;-71
2020/12/14 04:49:40;;;;;;;3.03;1.50;;;8.40;99.90;;;;;;5050764;28;20461;-70
2020/12/14 04:52:06;;;;;;;2.13;1.10;;;8.50;99.90;;;;;;5052590;28;20897;-71
2020/12/14 04:54:33;;;;;;;4.40;1.10;;;8.50;99.90;;;;;;5056203;28;20487;-71
2020/12/14 04:57:05;;;;;;;1.37;1.00;;;8.50;99.90;;;;;;5053207;28;20460;-71
2020/12/14 04:59:33;;;;;;;1.57;1.40;;;8.60;99.90;;;;;;5058532;28;20453;-71
2020/12/14 05:02:05;;;;;;;1.67;1.30;;;8.50;99.90;;;;;;5047274;28;21001;-71
2020/12/14 05:04:32;;;;;;;1.63;1.17;;;8.50;99.90;;;;;;5047692;28;20525;-70
2020/12/14 05:06:58;;;;;;;1.40;1.23;;;8.60;99.90;;;;;;5045314;28;20463;-72
2020/12/14 05:09:25;;;;;;;0.93;0.77;;;8.60;99.90;;;;;;5042574;28;20476;-69
2020/12/14 05:11:51;;;;;;;2.53;1.07;;;8.60;99.90;;;;;;5040392;28;20546;-71
2020/12/14 05:14:19;;;;;;;1.60;1.40;;;8.60;99.90;;;;;;5045689;28;20565;-70
2020/12/14 05:16:48;;;;;;;1.07;0.93;;;8.60;99.90;;;;;;5047504;28;20491;-70
2020/12/14 05:19:25;;;;;;;6.40;2.57;;;8.50;99.90;;;;;;5046572;28;20505;-70
2020/12/14 05:21:54;;;;;;;2.43;2.23;;;8.40;99.90;;;;;;5054002;28;20461;-71
2020/12/14 05:24:30;;;;;;;1.07;0.80;;;8.50;99.90;;;;;;5042672;28;20507;-71
2020/12/14 05:27:00;;;;;;;1.10;0.90;;;8.50;99.90;;;;;;5044014;28;20746;-71
2020/12/14 05:29:28;;;;;;;2.47;1.37;;;8.40;99.90;;;;;;5041647;28;20514;-70
2020/12/14 05:32:09;;;;;;;1.10;0.90;;;8.50;99.90;;;;;;5047245;28;20490;-71
2020/12/14 05:34:37;;;;;;;2.60;2.40;;;8.50;99.90;;;;;;5041217;28;20463;-71
2020/12/14 05:37:06;;;;;;;6.03;2.50;;;8.50;99.90;;;;;;5048862;28;20492;-70
2020/12/14 05:39:32;;;;;;;8.23;1.73;;;8.40;99.90;;;;;;5052285;28;20470;-70
2020/12/14 05:42:14;;;;;;;2.50;1.20;;;8.50;99.90;;;;;;5049008;28;20498;-71
2020/12/14 05:44:42;;;;;;;1.70;1.57;;;8.50;99.90;;;;;;5056179;28;20526;-71
2020/12/14 05:47:29;;;;;;;1.80;1.70;;;8.50;99.90;;;;;;5055595;28;20947;-70
2020/12/14 05:49:57;;;;;;;1.53;1.20;;;8.50;99.90;;;;;;5055460;28;20469;-71
2020/12/14 05:52:30;;;;;;;1.83;1.17;;;8.50;99.90;;;;;;5056301;28;20516;-70
2020/12/14 05:54:57;;;;;;;2.40;2.13;;;8.50;99.90;;;;;;5051379;28;20474;-70
2020/12/14 05:57:32;;;;;;;1.73;1.23;;;8.50;99.90;;;;;;5051448;28;20544;-70
2020/12/14 06:00:01;;;;;;;1.37;0.97;;;8.40;99.90;;;;;;5056398;28;20554;-71
2020/12/14 06:02:29;;;;;;;6.43;2.13;;;8.40;99.90;;;;;;5060438;28;20631;-71
2020/12/14 06:05:02;;;;;;;1.30;1.00;;;8.30;99.90;;;;;;5051306;28;20437;-71
2020/12/14 06:07:31;;;;;;;1.00;0.90;;;8.30;99.90;;;;;;5054999;28;20447;-71
2020/12/14 06:10:06;;;;;;;1.03;0.93;;;8.30;99.90;;;;;;5059743;28;20499;-71
2020/12/14 06:12:33;;;;;;;1.17;1.07;;;8.20;99.90;;;;;;5054528;28;20536;-71
2020/12/14 06:15:04;;;;;;;2.27;1.60;;;8.30;99.90;;;;;;5061810;28;20433;-71
2020/12/14 06:17:33;;;;;;;1.47;1.27;;;8.20;99.90;;;;;;5060418;28;20542;-70
2020/12/14 06:20:13;;;;;;;4.10;2.37;;;8.30;99.90;;;;;;5065985;28;20951;-70
2020/12/14 06:22:44;;;;;;;2.80;1.50;;;8.30;99.90;;;;;;5058869;28;20507;-70
2020/12/14 06:25:11;;;;;;;1.97;1.30;;;8.40;99.90;;;;;;5063584;28;20516;-70
2020/12/14 06:27:37;;;;;;;1.33;1.10;;;8.40;99.90;;;;;;5056152;28;20598;-71
2020/12/14 06:30:32;;;;;;;1.40;1.23;;;8.40;99.90;;;;;;5062781;28;20508;-71
2020/12/14 06:33:01;;;;;;;1.73;1.40;;;8.30;99.90;;;;;;5057801;28;20871;-71
2020/12/14 06:35:47;;;;;;;1.77;1.40;;;8.50;99.90;;;;;;5064616;28;20538;-70
2020/12/14 06:38:37;;;;;;;1.80;1.70;;;8.50;99.90;;;;;;5061388;28;20889;-71
2020/12/14 06:41:10;;;;;;;4.50;1.40;;;8.60;99.90;;;;;;5057724;28;20431;-71
2020/12/14 06:43:37;;;;;;;2.50;1.37;;;8.60;99.90;;;;;;5057294;28;20568;-70
2020/12/14 06:46:04;;;;;;;1.23;1.00;;;8.60;99.90;;;;;;5042208;28;20495;-70
2020/12/14 06:48:53;;;;;;;2.00;1.30;;;8.70;99.90;;;;;;5063032;28;20479;-70
2020/12/14 06:51:20;;;;;;;2.10;1.90;;;8.70;99.90;;;;;;5055216;28;20535;-70
2020/12/14 06:53:49;;;;;;;2.57;2.30;;;8.80;99.90;;;;;;5064391;28;20457;-71
2020/12/14 06:56:17;;;;;;;4.03;1.47;;;8.70;99.90;;;;;;5057958;28;20463;-71
2020/12/14 06:58:46;;;;;;;2.97;1.70;;;8.80;99.90;;;;;;5058250;28;21427;-71
2020/12/14 07:01:37;;;;;;;4.70;1.77;;;8.80;99.90;;;;;;5058275;28;20463;-70
2020/12/14 07:04:07;;;;;;;1.70;1.27;;;8.90;99.90;;;;;;5058757;28;20559;-71
2020/12/14 07:06:33;;;;;;;2.47;1.20;;;8.90;99.90;;;;;;5056749;28;22103;-70
2020/12/14 07:09:00;;;;;;;3.10;1.50;;;8.90;99.90;;;;;;5055112;28;20510;-70
2020/12/14 07:11:27;;;;;;;2.03;1.93;;;8.90;99.90;;;;;;5058236;28;20901;-70
2020/12/14 07:13:54;;;;;;;2.23;1.77;;;8.80;99.90;;;;;;5067056;28;20868;-70
2020/12/14 07:16:31;;;;;;;2.90;1.20;;;9.00;99.90;;;;;;5052146;28;20884;-71
2020/12/14 07:18:58;;;;;;;2.60;1.20;;;9.00;99.90;;;;;;5065817;28;21006;-69
2020/12/14 07:21:29;;;;;;;2.13;1.67;;;9.00;99.90;;;;;;5059403;28;20539;-70
2020/12/14 07:23:58;;;;;;;1.43;1.27;;;9.00;99.90;;;;;;5065502;28;20455;-70
2020/12/14 07:26:26;;;;;;;2.10;1.90;;;9.00;99.90;;;;;;5059767;28;20527;-70
2020/12/14 07:28:54;;;;;;;2.43;1.10;;;9.10;99.90;;;;;;5066239;28;20485;-70
2020/12/14 07:31:23;;;;;;;2.03;1.20;;;9.00;99.90;;;;;;5067254;28;20465;-71
2020/12/14 07:33:52;;;;;;;3.50;1.47;;;9.00;99.90;;;;;;5067982;28;20429;-70
2020/12/14 07:36:19;;;;;;;1.10;0.90;;;8.90;99.90;;;;;;5060316;28;20459;-71
2020/12/14 07:38:49;;;;;;;3.17;2.50;;;9.00;99.90;;;;;;5053658;28;20484;-72
2020/12/14 07:41:16;;;;;;;3.87;1.63;;;9.10;99.90;;;;;;5059989;28;21066;-71
2020/12/14 07:43:55;;;;;;;2.23;1.63;;;9.10;99.90;;;;;;5066273;28;20530;-71
2020/12/14 07:46:27;;;;;;;1.10;0.90;;;9.10;99.90;;;;;;5060324;28;20519;-72
2020/12/14 07:48:55;;;;;;;1.10;0.87;;;9.00;99.90;;;;;;5067979;28;20486;-71
2020/12/14 07:51:22;;;;;;;1.87;0.97;;;9.00;99.90;;;;;;5060809;28;20463;-71
2020/12/14 07:53:52;;;;;;;2.83;1.80;;;9.20;99.90;;;;;;5057038;28;20458;-72
2020/12/14 07:56:19;;;;;;;1.83;1.30;;;9.30;99.90;;;;;;5052916;28;20451;-71
2020/12/14 07:58:49;;;;;;;1.40;1.30;;;9.30;99.90;;;;;;5061121;28;20940;-71
2020/12/14 08:01:17;;;;;;;1.50;1.33;;;9.30;99.90;;;;;;5051826;28;20463;-71
2020/12/14 08:03:45;;;;;;;1.97;1.07;;;9.20;99.90;;;;;;5056948;28;20491;-72
2020/12/14 08:06:13;;;;;;;1.50;1.33;;;9.10;99.90;;;;;;5061520;28;20459;-73
2020/12/14 08:08:42;;;;;;;1.70;1.20;;;9.10;99.90;;;;;;5067262;28;20569;-72
2020/12/14 08:11:11;;;;;;;2.67;1.53;;;9.20;99.90;;;;;;5062239;28;20534;-72
2020/12/14 08:13:38;;;;;;;2.20;2.00;;;9.20;99.90;;;;;;5066239;28;20579;-70
2020/12/14 08:16:06;;;;;;;1.90;1.30;;;9.20;99.90;;;;;;5057347;28;20465;-70
2020/12/14 08:18:35;;;;;;;3.60;2.87;;;9.20;99.90;;;;;;5056432;28;20793;-70
2020/12/14 08:21:01;;;;;;;4.70;1.57;;;9.10;99.90;;;;;;5061285;28;20501;-70
2020/12/14 08:23:30;;;;;;;1.50;1.20;;;9.20;99.90;;;;;;5066826;28;20458;-72
2020/12/14 08:25:58;;;;;;;1.40;1.00;;;9.10;99.90;;;;;;5059557;28;20459;-71
2020/12/14 08:28:29;;;;;;;1.97;1.30;;;9.20;99.90;;;;;;5058073;28;20587;-71
2020/12/14 08:30:56;;;;;;;2.80;1.47;;;9.20;99.90;;;;;;5054479;28;20506;-70
2020/12/14 08:33:23;;;;;;;1.57;1.07;;;9.20;99.90;;;;;;5057156;28;20425;-71
2020/12/14 08:35:52;;;;;;;2.33;1.33;;;9.20;99.90;;;;;;5061476;28;20510;-71
2020/12/14 08:38:19;;;;;;;9.10;1.70;;;9.10;99.90;;;;;;5061637;28;20475;-71
2020/12/14 08:40:56;;;;;;;1.40;1.00;;;9.10;99.90;;;;;;5067167;28;20459;-72
2020/12/14 08:43:25;;;;;;;2.50;1.87;;;9.10;99.90;;;;;;5066778;28;20474;-71
2020/12/14 08:46:01;;;;;;;2.90;2.07;;;8.80;99.90;;;;;;5058032;28;20456;-71
2020/12/14 08:48:29;;;;;;;5.33;2.53;;;8.80;99.90;;;;;;5066447;28;20464;-72
2020/12/14 08:51:06;;;;;;;10.17;1.77;;;8.90;99.90;;;;;;5074248;28;20455;-71
2020/12/14 08:53:33;;;;;;;1.83;1.70;;;9.00;99.90;;;;;;5066636;28;20487;-73
2020/12/14 08:56:06;;;;;;;1.80;1.20;;;8.90;99.90;;;;;;5070375;28;20875;-70
2020/12/14 08:58:32;;;;;;;1.50;1.13;;;8.90;99.90;;;;;;5065100;28;20511;-72
2020/12/14 09:01:10;;;;;;;2.07;1.87;;;8.90;99.90;;;;;;5069780;28;20467;-72
2020/12/14 09:03:47;;;;;;;1.47;1.10;;;8.80;99.90;;;;;;5061910;28;20498;-71
2020/12/14 09:06:22;;;;;;;2.63;1.87;;;8.90;99.90;;;;;;5058331;28;20878;-71
2020/12/14 09:09:05;;;;;;;1.80;1.60;;;8.90;99.90;;;;;;5063640;28;20481;-71
2020/12/14 09:11:32;;;;;;;1.83;1.63;;;9.00;99.90;;;;;;5058037;28;20885;-71
2020/12/14 09:13:59;;;;;;;2.70;1.60;;;8.90;99.90;;;;;;5063821;28;20479;-71
2020/12/14 09:16:27;;;;;;;2.50;1.60;;;8.70;99.90;;;;;;5066210;28;20925;-71
2020/12/14 09:18:54;;;;;;;2.70;2.00;;;8.70;99.90;;;;;;5062640;28;20545;-71
2020/12/14 09:21:22;;;;;;;1.87;1.30;;;8.80;99.90;;;;;;5067908;28;20849;-70
2020/12/14 09:24:12;;;;;;;6.10;1.70;;;8.70;99.90;;;;;;5067217;28;20482;-71
2020/12/14 09:26:39;;;;;;;1.43;1.33;;;8.70;99.90;;;;;;5057475;28;20512;-72
2020/12/14 09:29:06;;;;;;;5.67;2.83;;;8.90;99.90;;;;;;5063253;28;20449;-71
2020/12/14 09:31:34;;;;;;;3.23;1.90;;;8.80;99.90;;;;;;5059624;28;20495;-71
2020/12/14 09:34:01;;;;;;;2.47;2.13;;;8.90;99.90;;;;;;5064333;28;20538;-72
2020/12/14 09:36:27;;;;;;;1.70;1.20;;;9.00;99.90;;;;;;5055531;28;20455;-71
2020/12/14 09:38:54;;;;;;;2.40;1.53;;;9.10;99.90;;;;;;5065270;28;20602;-71
2020/12/14 09:41:22;;;;;;;4.37;2.40;;;9.10;99.90;;;;;;5064451;28;20457;-71
2020/12/14 09:43:49;;;;;;;4.27;1.17;;;9.10;99.90;;;;;;5069461;28;20581;-71
2020/12/14 09:46:16;;;;;;;2.10;2.00;;;9.00;99.90;;;;;;5059598;28;20494;-71
2020/12/14 09:48:43;;;;;;;2.60;1.80;;;9.10;99.90;;;;;;5060349;28;20449;-71
2020/12/14 09:51:10;;;;;;;2.67;1.73;;;9.10;99.90;;;;;;5063847;28;20836;-73
2020/12/14 09:53:37;;;;;;;3.50;1.53;;;9.20;99.90;;;;;;5059800;28;20936;-71
2020/12/14 09:56:04;;;;;;;1.37;1.07;;;9.30;99.90;;;;;;5048029;28;20429;-71
2020/12/14 09:58:30;;;;;;;3.20;1.67;;;9.10;99.90;;;;;;5059387;28;20511;-71
2020/12/14 10:00:57;;;;;;;2.10;1.67;;;9.20;99.90;;;;;;5049897;28;20534;-72
2020/12/14 10:03:24;;;;;;;2.37;1.10;;;9.20;99.90;;;;;;5067146;28;20510;-71
2020/12/14 10:05:51;;;;;;;2.53;2.33;;;9.40;99.90;;;;;;5060454;28;20580;-71
2020/12/14 10:08:18;;;;;;;2.50;1.40;;;9.30;99.90;;;;;;5067534;28;20482;-71
2020/12/14 10:10:45;;;;;;;2.37;2.17;;;9.40;99.90;;;;;;5049573;28;20474;-72
2020/12/14 10:13:12;;;;;;;3.97;2.37;;;9.40;99.90;;;;;;5063694;28;20511;-71
2020/12/14 10:15:39;;;;;;;3.70;2.23;;;9.50;99.90;;;;;;5060264;28;20459;-71
2020/12/14 10:18:05;;;;;;;1.90;1.27;;;9.50;99.90;;;;;;5048801;28;20506;-71
2020/12/14 10:20:32;;;;;;;1.83;1.47;;;9.60;99.90;;;;;;5059413;28;20922;-73
2020/12/14 10:22:59;;;;;;;3.40;1.27;;;9.60;99.90;;;;;;5061458;28;20553;-70
2020/12/14 10:25:26;;;;;;;4.50;1.70;;;9.50;99.90;;;;;;5063223;28;20534;-70
2020/12/14 10:27:53;;;;;;;1.70;1.30;;;9.60;99.90;;;;;;5068842;28;21036;-70
2020/12/14 10:30:20;;;;;;;1.50;1.40;;;9.40;99.90;;;;;;5066921;28;20459;-70
2020/12/14 10:32:47;;;;;;;1.47;1.20;;;9.50;99.90;;;;;;5061193;28;20459;-70
2020/12/14 10:35:13;;;;;;;1.43;1.30;;;9.40;99.90;;;;;;5054757;28;20970;-70
2020/12/14 10:37:43;;;;;;;2.30;2.10;;;9.40;99.90;;;;;;5065095;28;20479;-70
2020/12/14 10:40:11;;;;;;;1.83;1.10;;;9.40;99.90;;;;;;5053664;28;20860;-71
2020/12/14 10:42:37;;;;;;;3.90;2.27;;;9.50;99.90;;;;;;5064840;28;20490;-71
2020/12/14 10:45:04;;;;;;;1.77;1.30;;;9.40;99.90;;;;;;5066176;28;20687;-70
2020/12/14 10:47:31;;;;;;;1.47;1.20;;;9.40;99.90;;;;;;5058604;28;20957;-71
2020/12/14 10:49:58;;;;;;;1.50;1.20;;;9.50;99.90;;;;;;5062895;28;20463;-71
2020/12/14 10:52:24;;;;;;;1.80;1.50;;;9.50;99.90;;;;;;5047222;28;20458;-70
2020/12/14 10:54:51;;;;;;;1.60;1.50;;;9.60;99.90;;;;;;5050128;28;20489;-70
2020/12/14 10:57:19;;;;;;;1.10;0.90;;;9.70;99.90;;;;;;5062768;28;20458;-72
2020/12/14 10:59:46;;;;;;;3.63;1.93;;;9.60;99.90;;;;;;5059533;28;20885;-71
2020/12/14 11:02:13;;;;;;;2.40;1.90;;;9.50;99.90;;;;;;5057307;28;20456;-71
2020/12/14 11:04:40;;;;;;;2.73;2.00;;;9.50;99.90;;;;;;5057963;28;21069;-71
2020/12/14 11:07:07;;;;;;;4.03;1.93;;;9.50;99.90;;;;;;5063943;28;20541;-71
2020/12/14 11:09:34;;;;;;;2.93;2.00;;;9.50;99.90;;;;;;5057016;28;20488;-70
2020/12/14 11:12:05;;;;;;;2.83;1.60;;;9.50;99.90;;;;;;5062180;28;20512;-70
2020/12/14 11:14:33;;;;;;;1.67;1.57;;;9.50;99.90;;;;;;5059588;28;20538;-71
2020/12/14 11:17:01;;;;;;;2.50;1.53;;;9.60;99.90;;;;;;5064359;28;20834;-71
2020/12/14 11:19:28;;;;;;;2.73;2.13;;;9.50;99.90;;;;;;5065949;28;21013;-70
2020/12/14 11:21:55;;;;;;;1.90;1.80;;;9.60;99.90;;;;;;5060439;28;20514;-71
2020/12/14 11:24:22;;;;;;;1.00;0.80;;;9.70;99.90;;;;;;5063979;28;20486;-71
2020/12/14 11:26:49;;;;;;;1.40;1.00;;;9.80;99.90;;;;;;5051065;28;20972;-71
2020/12/14 11:29:16;;;;;;;1.13;1.00;;;9.70;99.90;;;;;;5055390;28;20643;-70
2020/12/14 11:31:44;;;;;;;2.40;1.50;;;9.70;99.90;;;;;;5065674;28;20853;-70
2020/12/14 11:34:10;;;;;;;2.17;1.87;;;9.70;99.90;;;;;;5056745;28;20455;-70
2020/12/14 11:36:37;;;;;;;1.43;1.33;;;9.80;99.90;;;;;;5061786;28;20502;-72
2020/12/14 11:39:04;;;;;;;2.60;1.17;;;9.80;99.90;;;;;;5057022;28;21017;-71
2020/12/14 11:41:31;;;;;;;1.30;1.20;;;10.00;99.90;;;;;;5069178;28;20447;-72
2020/12/14 11:43:58;;;;;;;2.37;1.47;;;10.00;99.90;;;;;;5056846;28;20478;-70
2020/12/14 11:46:24;;;;;;;4.33;2.43;;;10.00;99.90;;;;;;5067692;28;20559;-70
2020/12/14 11:48:52;;;;;;;2.23;2.03;;;10.00;99.90;;;;;;5060198;28;20974;-70
2020/12/14 11:51:18;;;;;;;3.23;1.53;;;9.90;99.90;;;;;;5069971;28;20517;-70
2020/12/14 11:53:45;;;;;;;3.90;1.70;;;9.90;99.90;;;;;;5047997;28;20513;-70
2020/12/14 11:56:12;;;;;;;1.30;1.17;;;9.90;99.90;;;;;;5059208;28;20492;-70
2020/12/14 11:58:38;;;;;;;2.40;1.60;;;10.00;99.90;;;;;;5062717;28;20540;-70
2020/12/14 12:01:05;;;;;;;5.33;1.90;;;10.10;99.90;;;;;;5055019;28;20452;-71
2020/12/14 12:03:32;;;;;;;1.90;1.70;;;10.20;99.90;;;;;;5050883;28;20511;-71
2020/12/14 12:05:59;;;;;;;1.60;1.40;;;10.10;99.90;;;;;;5062528;28;20474;-71
2020/12/14 12:08:26;;;;;;;1.73;1.43;;;10.00;99.90;;;;;;5053569;28;20476;-71
2020/12/14 12:10:53;;;;;;;1.70;1.60;;;10.10;99.90;;;;;;5054448;28;21130;-71
2020/12/14 12:13:20;;;;;;;4.17;2.20;;;10.20;99.90;;;;;;5056608;28;20444;-70
2020/12/14 12:15:47;;;;;;;5.00;1.83;;;10.40;99.90;;;;;;5062696;28;20489;-71
2020/12/14 12:18:13;;;;;;;2.87;1.80;;;10.40;99.90;;;;;;5053618;28;20483;-71
2020/12/14 12:20:40;;;;;;;2.40;1.60;;;10.50;99.90;;;;;;5054079;28;20813;-71
2020/12/14 12:23:07;;;;;;;1.10;0.93;;;10.60;99.90;;;;;;5061564;28;20421;-71
2020/12/14 12:25:34;;;;;;;4.10;2.20;;;10.50;99.90;;;;;;5059011;28;20438;-71
2020/12/14 12:28:01;;;;;;;2.33;1.73;;;10.40;99.90;;;;;;5058769;28;20515;-72
2020/12/14 12:30:33;;;;;;;8.23;1.53;;;10.50;99.90;;;;;;5059427;28;20554;-72
2020/12/14 12:33:00;;;;;;;5.73;1.73;;;10.50;99.90;;;;;;5066132;28;20450;-71
2020/12/14 12:35:27;;;;;;;1.70;1.17;;;10.40;99.90;;;;;;5057973;28;20529;-70
2020/12/14 12:37:54;;;;;;;4.67;2.40;;;10.50;99.90;;;;;;5061864;28;20550;-71
2020/12/14 12:40:21;;;;;;;3.30;2.03;;;10.80;99.90;;;;;;5061052;28;20493;-71
2020/12/14 12:42:48;;;;;;;2.83;2.53;;;11.70;99.90;;;;;;5065124;28;20417;-71
2020/12/14 12:45:15;;;;;;;1.40;1.10;;;12.20;99.90;;;;;;5058164;28;20849;-71
2020/12/14 12:47:42;;;;;;;2.40;1.50;;;12.10;99.90;;;;;;5068049;28;20971;-70
2020/12/14 12:50:09;;;;;;;4.10;3.70;;;12.20;99.90;;;;;;5062795;28;20451;-71
2020/12/14 12:52:36;;;;;;;2.03;1.93;;;13.20;99.90;;;;;;5061791;28;20455;-71
2020/12/14 12:55:03;;;;;;;1.60;1.40;;;14.40;99.90;;;;;;5055638;28;21002;-71
2020/12/14 12:57:30;;;;;;;2.27;1.70;;;15.00;99.90;;;;;;5055852;28;20443;-71
2020/12/14 12:59:57;;;;;;;3.67;1.80;;;16.20;99.90;;;;;;5065506;28;20530;-72